Terminal Aerodrome Forecast
Issued by NWS

Home | Current Version | Previous Version | Text Only | Print | Product List | Glossary On
Versions: 1 2 3 4 5 6 7 8 9 10 11 12
000
FTUS44 KTSA 051100
TAFMLC
TAF
KMLC 051120Z 0512/0612 12005KT P6SM SCT250 WS020/17040KT
     FM051400 14010G18KT P6SM BKN250
     FM052000 16012G18KT P6SM VCTS SCT050CB BKN150
     FM060000 15010KT P6SM VCTS BKN050CB
      TEMPO 0600/0604 5SM -TSRA BKN040CB
     FM060400 15010KT P6SM VCTS BKN040CB
      TEMPO 0604/0608 4SM -TSRA BKN030CB=

USA.gov is the U.S. government's official web portal to all federal, state and local government web resources and services.